Hauptseite
METAR-TAF:

METAR-TAF

Flughäfen :

N’Djamena, Tschad

Flughafen N’Djamena

Breite: 12-08N, Länge: 015-02E, Höhe: 295 m

Beobachtung

Neuester Wetterbericht von vor 22 Minuten, um 16:00 UTC
Wind 4 kt aus Nordwest, variierte zwischen West und Nord
Temperatur 34°C
Luftfeuchtigkeit 11%
Luftdruck 1007 hPa
Sichtweite 10 km oder mehr
keine Wolken unter 1500 m und keine Kumulonimbus oder Gewitterwolken

METAR: FTTJ 181600Z 31004KT 280V360 CAVOK 34/00 Q1007 NOSIG

Zeit: 17:22 (16:22 UTC)

Prognose

Neuester Wetterbericht von vor 5 Stunden und 22 Minuten, um 11:00 UTC
Gültige Prognose vom 18 um 12 UTC bis 19 um 18 UTC
Wind 8 kt aus Ost
Sichtweite: 8000 m
Zeitweise
vom 19 um 00 UTC bis 19 um 08 UTC
Wind 4 kt aus unterschiedlichen Richtungen
Sichtweite: 4000 m
trockener Dunst

TAF: FTTJ 181100Z 1812/1918 08008KT 8000 NSW TEMPO 1900/1908 VRB04KT 4000 HZ NSC

Wetterbeobachtungen und Prognosen von mehr als 4000 Flughäfen (METAR und TAF Bericht).

Die verfügbaren Stationen werden durch gelbe und rote Markierungen auf der Karte dargestellt.

Führen Sie die Maus auf sie, um den Namen der Station zu sehen.

Darauf klicken, um die Beobachtung von Wetterbeobachtungen und Prognosen zu sehen.

Um die Karte zu ändern : klicken Sie auf den grünen Tasten mit einem schwarzen Kreuz Zum Vergrößern, auf den grünen Button mit einem Gedankenstrich zu verkleinern, oder auf die grünen Pfeile für benachbarte Karten.


METAR-TAF: